createdAt,value
2022-11-13T00:01:59.635Z,39.20
2022-11-13T00:05:19.550Z,34.40
2022-11-13T00:08:43.316Z,38.30
2022-11-13T00:12:03.610Z,38.20
2022-11-13T00:15:23.765Z,38.50
2022-11-13T00:18:44.601Z,38.20
2022-11-13T00:22:06.706Z,36.30
2022-11-13T00:25:28.061Z,41.40
2022-11-13T00:28:48.675Z,42.90
2022-11-13T00:32:08.607Z,38.90
2022-11-13T00:35:29.787Z,39.50
2022-11-13T00:38:49.680Z,38.60
2022-11-13T00:42:09.779Z,40.60
2022-11-13T00:45:31.032Z,39.70
2022-11-13T00:48:51.887Z,40.40
2022-11-13T00:52:11.672Z,41.30
2022-11-13T00:55:32.806Z,41.10
2022-11-13T00:58:53.667Z,43.20
2022-11-13T01:02:14.836Z,44.30
2022-11-13T01:05:34.753Z,41.00
2022-11-13T01:08:55.840Z,44.40
2022-11-13T01:12:16.709Z,43.80
2022-11-13T01:15:36.905Z,48.20
2022-11-13T01:18:56.722Z,37.80
2022-11-13T01:22:16.850Z,40.40
2022-11-13T01:25:37.729Z,44.80
2022-11-13T01:29:00.262Z,46.00
2022-11-13T01:32:20.768Z,44.30
2022-11-13T01:35:41.025Z,41.10
2022-11-13T01:39:00.779Z,40.60
2022-11-13T01:42:21.941Z,41.00
2022-11-13T01:46:13.776Z,39.10
2022-11-13T01:49:49.988Z,43.60
2022-11-13T01:53:10.833Z,39.40
2022-11-13T01:56:30.919Z,38.20
2022-11-13T01:59:55.467Z,41.40
2022-11-13T02:03:46.904Z,38.60
2022-11-13T02:07:26.996Z,43.60
2022-11-13T02:10:46.887Z,41.80
2022-11-13T02:14:07.929Z,45.60
2022-11-13T02:17:33.878Z,40.00
2022-11-13T02:21:43.073Z,39.90
2022-11-13T02:25:03.888Z,38.60
2022-11-13T02:28:24.049Z,45.10
2022-11-13T02:31:43.912Z,37.70
2022-11-13T02:35:04.031Z,38.80
2022-11-13T02:38:26.215Z,41.00
2022-11-13T02:41:46.248Z,40.70
2022-11-13T02:45:05.920Z,42.80
2022-11-13T02:48:27.378Z,39.20
2022-11-13T02:51:39.930Z,39.10
2022-11-13T02:55:01.101Z,44.40
2022-11-13T02:58:15.946Z,39.30
2022-11-13T03:01:37.556Z,38.20
2022-11-13T03:05:13.970Z,38.20
2022-11-13T03:08:36.205Z,36.80
2022-11-13T03:11:56.984Z,41.80
2022-11-13T03:15:19.330Z,40.90
2022-11-13T03:18:40.000Z,42.60
2022-11-13T03:22:01.210Z,43.40
2022-11-13T03:25:22.018Z,41.60
2022-11-13T03:28:42.238Z,40.50
2022-11-13T03:32:03.034Z,40.00
2022-11-13T03:35:23.266Z,38.40
2022-11-13T03:38:44.033Z,41.70
2022-11-13T03:42:04.234Z,40.90
2022-11-13T03:45:24.055Z,43.20
2022-11-13T03:48:45.358Z,40.70
2022-11-13T03:52:05.063Z,37.80
2022-11-13T03:55:25.294Z,36.00
2022-11-13T03:58:49.572Z,38.60
2022-11-13T04:02:09.368Z,38.90
2022-11-13T04:05:30.207Z,39.50
2022-11-13T04:08:51.213Z,38.70
2022-11-13T04:12:11.168Z,36.20
2022-11-13T04:15:32.219Z,38.20
2022-11-13T04:18:45.168Z,35.10
2022-11-13T04:21:52.281Z,33.30
2022-11-13T04:25:13.166Z,34.60
2022-11-13T04:28:33.353Z,30.60
2022-11-13T04:31:54.170Z,30.00
2022-11-13T04:35:14.374Z,33.80
2022-11-13T04:38:35.201Z,30.70
2022-11-13T04:42:14.402Z,32.40
2022-11-13T04:45:37.225Z,31.10
2022-11-13T04:48:58.403Z,38.70
2022-11-13T04:52:21.115Z,29.30
2022-11-13T04:55:42.432Z,26.80
2022-11-13T04:59:02.255Z,30.10
2022-11-13T05:02:22.348Z,26.90
2022-11-13T05:05:42.342Z,27.20
2022-11-13T05:09:02.403Z,35.00
2022-11-13T05:12:22.299Z,32.20
2022-11-13T05:15:42.475Z,31.00
2022-11-13T05:19:02.302Z,33.30
2022-11-13T05:22:23.495Z,36.60
2022-11-13T05:25:43.305Z,36.80
2022-11-13T05:29:04.517Z,39.10
2022-11-13T05:32:24.369Z,42.70
2022-11-13T05:35:45.497Z,48.90
2022-11-13T05:39:05.353Z,45.90
2022-11-13T05:42:26.544Z,50.50
2022-11-13T05:45:47.378Z,47.40
2022-11-13T05:49:13.506Z,50.40
2022-11-13T05:52:33.365Z,50.40
2022-11-13T05:55:54.572Z,48.10
2022-11-13T05:59:15.429Z,44.20
2022-11-13T06:02:35.568Z,50.70
2022-11-13T06:05:55.415Z,43.40
2022-11-13T06:09:19.585Z,51.10
2022-11-13T06:12:39.437Z,49.60
2022-11-13T06:15:59.613Z,54.20
2022-11-13T06:19:22.476Z,52.70
2022-11-13T06:22:43.680Z,50.30
2022-11-13T06:26:03.766Z,53.20
2022-11-13T06:29:25.542Z,55.60
2022-11-13T06:32:46.460Z,51.40
2022-11-13T06:36:06.679Z,52.40
2022-11-13T06:39:27.520Z,48.90
2022-11-13T06:42:48.582Z,54.90
2022-11-13T06:46:10.473Z,53.90
2022-11-13T06:49:30.613Z,57.50
2022-11-13T06:52:51.519Z,55.60
2022-11-13T06:56:12.629Z,52.80
2022-11-13T06:59:33.528Z,56.90
2022-11-13T07:02:53.768Z,51.90
2022-11-13T07:06:21.545Z,76.30
2022-11-13T07:09:42.662Z,53.30
2022-11-13T07:13:02.595Z,55.20
2022-11-13T07:16:23.669Z,54.00
2022-11-13T07:19:44.583Z,54.40
2022-11-13T07:23:08.792Z,53.30
2022-11-13T07:26:28.614Z,55.80
2022-11-13T07:29:48.833Z,46.00
2022-11-13T07:33:08.613Z,53.00
2022-11-13T07:36:28.758Z,52.70
2022-11-13T07:39:49.647Z,53.00
2022-11-13T07:43:11.813Z,48.60
2022-11-13T07:46:31.623Z,52.20
2022-11-13T07:49:51.760Z,56.10
2022-11-13T07:53:14.674Z,50.60
2022-11-13T07:56:35.822Z,50.80
2022-11-13T07:59:55.795Z,52.60
2022-11-13T08:03:26.859Z,50.50
2022-11-13T08:06:46.810Z,45.70
2022-11-13T08:10:07.822Z,52.20
2022-11-13T08:13:27.777Z,47.20
2022-11-13T08:16:48.979Z,59.40
2022-11-13T08:20:10.741Z,42.90
2022-11-13T08:23:31.878Z,47.10
2022-11-13T08:26:51.852Z,45.10
2022-11-13T08:30:11.836Z,50.10
2022-11-13T08:33:25.800Z,40.20
2022-11-13T08:36:32.865Z,50.90
2022-11-13T08:39:52.781Z,52.30
2022-11-13T08:43:17.946Z,44.70
2022-11-13T08:46:38.824Z,48.90
2022-11-13T08:49:59.007Z,46.20
2022-11-13T08:53:18.844Z,46.30
2022-11-13T08:56:39.031Z,48.50
2022-11-13T08:59:58.831Z,55.80
2022-11-13T09:03:18.981Z,50.00
2022-11-13T09:06:38.874Z,50.60
2022-11-13T09:09:59.874Z,52.20
2022-11-13T09:13:20.880Z,42.70
2022-11-13T09:16:40.871Z,45.20
2022-11-13T09:19:53.883Z,44.70
2022-11-13T09:23:20.319Z,43.40
2022-11-13T09:26:40.917Z,43.80
2022-11-13T09:30:02.015Z,51.50
2022-11-13T09:33:23.885Z,45.20
2022-11-13T09:36:45.086Z,45.10
2022-11-13T09:40:05.897Z,37.30
2022-11-13T09:43:42.026Z,40.70
2022-11-13T09:47:31.928Z,42.70
2022-11-13T09:50:47.035Z,41.10
2022-11-13T09:54:08.956Z,45.10
2022-11-13T09:57:30.062Z,43.40
2022-11-13T10:00:51.002Z,41.60
2022-11-13T10:04:15.015Z,42.80
2022-11-13T10:07:46.989Z,39.30
2022-11-13T10:11:10.234Z,48.60
2022-11-13T10:14:37.042Z,54.30
2022-11-13T10:18:05.153Z,49.10
2022-11-13T10:21:41.017Z,43.30
2022-11-13T10:25:05.256Z,40.40
2022-11-13T10:28:50.529Z,47.60
2022-11-13T10:32:12.131Z,47.40
2022-11-13T10:35:42.106Z,54.10
2022-11-13T10:39:16.227Z,52.70
2022-11-13T10:42:43.327Z,51.30
2022-11-13T10:46:15.126Z,48.60
2022-11-13T10:49:40.139Z,50.50
2022-11-13T10:53:03.303Z,49.00
2022-11-13T10:56:39.176Z,45.70
2022-11-13T10:59:59.488Z,46.70
2022-11-13T11:03:22.187Z,47.60
2022-11-13T11:07:18.379Z,54.20
2022-11-13T11:10:35.164Z,56.00
2022-11-13T11:13:56.174Z,54.30
2022-11-13T11:17:19.244Z,48.90
2022-11-13T11:20:55.170Z,50.70
2022-11-13T11:24:48.177Z,46.90
2022-11-13T11:28:16.176Z,43.40
2022-11-13T11:31:47.183Z,47.40
2022-11-13T11:35:14.314Z,43.70
2022-11-13T11:38:38.177Z,44.50
2022-11-13T11:42:14.303Z,44.90
2022-11-13T11:45:46.215Z,44.00
2022-11-13T11:49:08.310Z,40.70
2022-11-13T11:52:38.245Z,40.70
2022-11-13T11:56:22.247Z,44.80
2022-11-13T12:00:03.275Z,44.10
2022-11-13T12:03:50.269Z,50.00
2022-11-13T12:07:26.317Z,43.70
2022-11-13T12:11:14.303Z,40.00
2022-11-13T12:14:41.286Z,43.30
2022-11-13T12:18:22.517Z,49.50
2022-11-13T12:22:02.293Z,45.40
2022-11-13T12:25:36.403Z,41.70
2022-11-13T12:29:08.376Z,49.70
2022-11-13T12:33:03.411Z,44.40
2022-11-13T12:36:26.374Z,51.70
2022-11-13T12:40:15.561Z,46.60
2022-11-13T12:43:50.388Z,43.80
2022-11-13T12:47:14.453Z,44.10
2022-11-13T12:50:41.430Z,58.20
2022-11-13T12:54:02.348Z,57.40
2022-11-13T12:57:30.622Z,45.60
2022-11-13T13:00:54.580Z,48.30
2022-11-13T13:04:29.425Z,43.30
2022-11-13T13:08:26.632Z,47.80
2022-11-13T13:11:55.399Z,50.80
2022-11-13T13:15:51.422Z,122.70
2022-11-13T13:19:36.510Z,82.00
2022-11-13T13:22:56.741Z,61.70
2022-11-13T13:26:38.142Z,53.00
2022-11-13T13:29:58.492Z,46.80
2022-11-13T13:33:53.484Z,42.90
2022-11-13T13:37:45.676Z,46.80
2022-11-13T13:41:25.511Z,44.70
2022-11-13T13:45:12.610Z,44.60
2022-11-13T13:48:37.534Z,45.30
2022-11-13T13:52:07.639Z,46.60
2022-11-13T13:55:42.574Z,56.70
2022-11-13T13:59:04.651Z,46.10
2022-11-13T14:02:31.587Z,61.40
2022-11-13T14:05:51.700Z,45.20
2022-11-13T14:09:35.722Z,41.60
2022-11-13T14:12:58.737Z,42.70
2022-11-13T14:16:20.602Z,43.20
2022-11-13T14:19:41.716Z,49.50
2022-11-13T14:23:04.592Z,48.50
2022-11-13T14:26:24.739Z,63.50
2022-11-13T14:30:00.593Z,63.40
2022-11-13T14:33:33.633Z,62.80
2022-11-13T14:36:54.601Z,68.50
2022-11-13T14:40:48.627Z,73.00
2022-11-13T14:44:08.656Z,54.50
2022-11-13T14:47:43.786Z,83.70
2022-11-13T14:51:09.659Z,94.80
2022-11-13T14:55:14.181Z,52.60
2022-11-13T14:58:41.679Z,92.50
2022-11-13T15:02:09.918Z,57.70
2022-11-13T15:05:29.693Z,53.90
2022-11-13T15:08:50.841Z,48.60
2022-11-13T15:12:10.724Z,47.40
2022-11-13T15:15:37.810Z,43.40
2022-11-13T15:19:20.724Z,47.30
2022-11-13T15:22:41.045Z,52.40
2022-11-13T15:26:04.748Z,46.20
2022-11-13T15:29:24.848Z,43.50
2022-11-13T15:32:45.764Z,56.10
2022-11-13T15:36:06.888Z,46.40
2022-11-13T15:39:26.800Z,79.00
2022-11-13T15:42:49.789Z,100.10
2022-11-13T15:46:09.780Z,92.40
2022-11-13T15:49:31.009Z,72.80
2022-11-13T15:52:53.795Z,57.90
2022-11-13T15:56:13.908Z,54.60
2022-11-13T15:59:34.892Z,58.50
2022-11-13T16:02:58.966Z,57.10
2022-11-13T16:06:22.273Z,51.60
2022-11-13T16:09:41.952Z,54.60
2022-11-13T16:13:02.906Z,60.40
2022-11-13T16:16:29.869Z,67.70
2022-11-13T16:19:51.876Z,54.50
2022-11-13T16:23:12.005Z,75.80
2022-11-13T16:26:38.868Z,67.50
2022-11-13T16:30:02.369Z,59.50
2022-11-13T16:33:27.232Z,67.00
2022-11-13T16:36:48.002Z,148.10
2022-11-13T16:40:07.893Z,71.10
2022-11-13T16:43:21.017Z,51.90
2022-11-13T16:46:40.012Z,58.00
2022-11-13T16:50:00.946Z,51.20
2022-11-13T16:53:14.940Z,71.00
2022-11-13T16:56:38.936Z,76.00
2022-11-13T16:59:59.056Z,55.70
2022-11-13T17:03:21.357Z,67.30
2022-11-13T17:06:44.041Z,65.50
2022-11-13T17:10:29.675Z,75.00
2022-11-13T17:13:44.256Z,129.10
2022-11-13T17:17:05.210Z,83.00
2022-11-13T17:20:27.138Z,75.30
2022-11-13T17:23:48.211Z,72.50
2022-11-13T17:27:08.370Z,129.40
2022-11-13T17:30:28.220Z,56.90
2022-11-13T17:33:49.084Z,55.70
2022-11-13T17:37:09.404Z,58.80
2022-11-13T17:40:29.067Z,55.60
2022-11-13T17:43:53.662Z,58.50
2022-11-13T17:47:15.100Z,53.90
2022-11-13T17:50:36.198Z,57.00
2022-11-13T17:53:56.145Z,54.10
2022-11-13T17:57:24.193Z,49.50
2022-11-13T18:00:47.118Z,52.90
2022-11-13T18:04:11.192Z,53.40
2022-11-13T18:07:31.204Z,59.20
2022-11-13T18:10:56.284Z,53.60
2022-11-13T18:14:16.164Z,51.10
2022-11-13T18:17:36.462Z,51.70
2022-11-13T18:20:57.172Z,52.10
2022-11-13T18:24:21.313Z,50.50
2022-11-13T18:27:42.229Z,53.20
2022-11-13T18:31:03.297Z,57.40
2022-11-13T18:34:30.826Z,54.20
2022-11-13T18:37:51.352Z,55.80
2022-11-13T18:41:19.239Z,62.00
2022-11-13T18:44:40.294Z,50.00
2022-11-13T18:48:01.343Z,61.50
2022-11-13T18:51:29.220Z,54.00
2022-11-13T18:54:50.572Z,55.00
2022-11-13T18:58:11.604Z,55.30
2022-11-13T19:04:54.289Z,55.00
2022-11-13T19:08:15.399Z,60.60
2022-11-13T19:11:35.552Z,59.30
2022-11-13T19:14:56.661Z,52.30
2022-11-13T19:18:18.421Z,51.90
2022-11-13T19:21:42.312Z,53.90
2022-11-13T19:25:03.607Z,55.60
2022-11-13T19:28:23.333Z,55.80
2022-11-13T19:31:44.466Z,53.50
2022-11-13T19:35:04.525Z,51.70
2022-11-13T19:38:25.383Z,51.00
2022-11-13T19:41:46.524Z,52.20
2022-11-13T19:45:07.564Z,55.90
2022-11-13T19:48:27.348Z,57.00
2022-11-13T19:51:48.648Z,52.10
2022-11-13T19:55:09.469Z,49.60
2022-11-13T19:58:29.946Z,54.00
2022-11-13T20:01:51.438Z,57.50
2022-11-13T20:05:12.717Z,64.90
2022-11-13T20:08:34.983Z,58.80
2022-11-13T20:11:54.627Z,55.30
2022-11-13T20:15:15.439Z,58.40
2022-11-13T20:18:35.450Z,55.10
2022-11-13T20:21:56.483Z,52.40
2022-11-13T20:25:16.470Z,58.60
2022-11-13T20:28:37.836Z,56.60
2022-11-13T20:31:58.599Z,58.20
2022-11-13T20:35:22.668Z,53.10
2022-11-13T20:38:44.723Z,59.30
2022-11-13T20:42:04.546Z,55.10
2022-11-13T20:45:25.047Z,61.00
2022-11-13T20:48:45.526Z,63.10
2022-11-13T20:52:05.692Z,58.00
2022-11-13T20:55:26.520Z,61.10
2022-11-13T20:58:47.728Z,59.20
2022-11-13T21:02:08.576Z,60.00
2022-11-13T21:05:28.561Z,60.00
2022-11-13T21:08:48.626Z,59.50
2022-11-13T21:12:08.865Z,61.70
2022-11-13T21:15:29.590Z,56.10
2022-11-13T21:18:51.694Z,62.40
2022-11-13T21:22:11.598Z,60.80
2022-11-13T21:25:31.774Z,59.00
2022-11-13T21:28:53.568Z,68.60
2022-11-13T21:32:13.723Z,62.00
2022-11-13T21:35:34.654Z,62.00
2022-11-13T21:38:55.805Z,61.00
2022-11-13T21:42:16.688Z,64.50
2022-11-13T21:45:37.748Z,57.00
2022-11-13T21:48:58.694Z,64.30
2022-11-13T21:52:18.758Z,58.90
2022-11-13T21:55:38.690Z,58.60
2022-11-13T21:59:00.001Z,63.30
2022-11-13T22:02:23.734Z,65.00
2022-11-13T22:05:44.876Z,66.90
2022-11-13T22:09:13.673Z,63.80
2022-11-13T22:12:34.792Z,63.70
2022-11-13T22:15:55.714Z,63.20
2022-11-13T22:19:26.522Z,62.60
2022-11-13T22:22:47.764Z,68.90
2022-11-13T22:26:20.022Z,57.20
2022-11-13T22:29:39.735Z,63.60
2022-11-13T22:33:00.856Z,60.80
2022-11-13T22:36:26.782Z,58.10
2022-11-13T22:39:48.045Z,59.10
2022-11-13T22:43:08.969Z,58.20
2022-11-13T22:46:33.098Z,60.10
2022-11-13T22:49:54.791Z,65.60
2022-11-13T22:53:15.911Z,63.90
2022-11-13T22:56:38.853Z,61.60
2022-11-13T23:00:00.020Z,70.00
2022-11-13T23:03:19.932Z,65.30
2022-11-13T23:06:43.013Z,58.60
2022-11-13T23:10:03.852Z,63.30
2022-11-13T23:13:24.950Z,62.70
2022-11-13T23:16:47.873Z,80.40
2022-11-13T23:20:08.945Z,63.10
2022-11-13T23:23:29.933Z,59.40
2022-11-13T23:33:02.201Z,68.10
2022-11-13T23:36:16.110Z,61.20
2022-11-13T23:39:34.182Z,76.40
2022-11-13T23:42:55.897Z,73.50
2022-11-13T23:46:15.284Z,71.90
2022-11-13T23:49:34.155Z,72.30
2022-11-13T23:52:52.298Z,70.50
2022-11-13T23:56:11.144Z,66.40
2022-11-13T23:59:23.240Z,72.10
